Aviation Digital Data Service (ADDS)

Output produced by METARs form (1209 UTC 22 October 2014)
found at http://aviationweather.gov/adds/metars/
 
KBWI 221137Z 2212/2318 36014KT 2SM SHRA SCT010 BKN020 OVC040 
     FM221300 35014G24KT 5SM -SHRA SCT010 BKN020 OVC040 
     FM221700 35016G24KT 6SM -SHRA OVC025 
     FM222100 34018G27KT P6SM OVC030 
     FM222300 34019G29KT P6SM OVC040